sensor_id;sensor_type;location;lat;lon;timestamp;P1;durP1;ratioP1;P2;durP2;ratioP2
62401;SDS011;48440;51.224;22.506;2023-04-06T00:00:34;3.90;;;2.33;;
62401;SDS011;48440;51.224;22.506;2023-04-06T00:02:59;4.28;;;2.35;;
62401;SDS011;48440;51.224;22.506;2023-04-06T00:05:25;3.60;;;2.17;;
62401;SDS011;48440;51.224;22.506;2023-04-06T00:07:52;3.55;;;2.55;;
62401;SDS011;48440;51.224;22.506;2023-04-06T00:10:19;3.72;;;2.40;;
62401;SDS011;48440;51.224;22.506;2023-04-06T00:12:44;4.18;;;2.30;;
62401;SDS011;48440;51.224;22.506;2023-04-06T00:15:10;4.95;;;2.42;;
62401;SDS011;48440;51.224;22.506;2023-04-06T00:17:36;3.17;;;2.30;;
62401;SDS011;48440;51.224;22.506;2023-04-06T00:20:01;2.83;;;2.13;;
62401;SDS011;48440;51.224;22.506;2023-04-06T00:22:27;5.15;;;2.30;;
62401;SDS011;48440;51.224;22.506;2023-04-06T00:24:52;2.55;;;1.90;;
62401;SDS011;48440;51.224;22.506;2023-04-06T00:27:18;4.85;;;3.13;;
62401;SDS011;48440;51.224;22.506;2023-04-06T00:29:43;3.20;;;2.38;;
62401;SDS011;48440;51.224;22.506;2023-04-06T00:32:09;2.75;;;2.15;;
62401;SDS011;48440;51.224;22.506;2023-04-06T00:34:34;3.72;;;1.92;;
62401;SDS011;48440;51.224;22.506;2023-04-06T00:37:00;3.38;;;2.13;;
62401;SDS011;48440;51.224;22.506;2023-04-06T00:39:26;3.17;;;2.22;;
62401;SDS011;48440;51.224;22.506;2023-04-06T00:41:52;3.03;;;2.30;;
62401;SDS011;48440;51.224;22.506;2023-04-06T00:44:18;3.15;;;2.20;;
62401;SDS011;48440;51.224;22.506;2023-04-06T00:46:45;3.70;;;2.30;;
62401;SDS011;48440;51.224;22.506;2023-04-06T00:49:10;3.65;;;2.17;;
62401;SDS011;48440;51.224;22.506;2023-04-06T00:51:36;3.50;;;2.20;;
62401;SDS011;48440;51.224;22.506;2023-04-06T00:54:01;2.47;;;2.10;;
62401;SDS011;48440;51.224;22.506;2023-04-06T00:56:27;3.45;;;2.30;;
62401;SDS011;48440;51.224;22.506;2023-04-06T00:58:53;3.05;;;2.00;;
62401;SDS011;48440;51.224;22.506;2023-04-06T01:01:18;3.33;;;2.28;;
62401;SDS011;48440;51.224;22.506;2023-04-06T01:03:44;3.10;;;1.85;;
62401;SDS011;48440;51.224;22.506;2023-04-06T01:06:13;2.97;;;2.10;;
62401;SDS011;48440;51.224;22.506;2023-04-06T01:08:42;3.40;;;1.85;;
62401;SDS011;48440;51.224;22.506;2023-04-06T01:11:07;3.67;;;1.98;;
62401;SDS011;48440;51.224;22.506;2023-04-06T01:13:33;3.35;;;1.90;;
62401;SDS011;48440;51.224;22.506;2023-04-06T01:15:58;3.75;;;2.30;;
62401;SDS011;48440;51.224;22.506;2023-04-06T01:18:27;3.17;;;1.90;;
62401;SDS011;48440;51.224;22.506;2023-04-06T01:20:54;3.10;;;2.20;;
62401;SDS011;48440;51.224;22.506;2023-04-06T01:23:19;2.22;;;1.83;;
62401;SDS011;48440;51.224;22.506;2023-04-06T01:25:45;3.72;;;2.20;;
62401;SDS011;48440;51.224;22.506;2023-04-06T01:28:10;3.53;;;2.20;;
62401;SDS011;48440;51.224;22.506;2023-04-06T01:30:36;3.03;;;2.15;;
62401;SDS011;48440;51.224;22.506;2023-04-06T01:33:01;3.10;;;1.80;;
62401;SDS011;48440;51.224;22.506;2023-04-06T01:35:27;2.83;;;2.00;;
62401;SDS011;48440;51.224;22.506;2023-04-06T01:37:53;5.07;;;2.20;;
62401;SDS011;48440;51.224;22.506;2023-04-06T01:40:19;3.03;;;2.08;;
62401;SDS011;48440;51.224;22.506;2023-04-06T01:42:45;4.63;;;2.00;;
62401;SDS011;48440;51.224;22.506;2023-04-06T01:45:11;2.83;;;1.75;;
62401;SDS011;48440;51.224;22.506;2023-04-06T01:47:37;3.20;;;1.80;;
62401;SDS011;48440;51.224;22.506;2023-04-06T01:50:02;3.65;;;1.90;;
62401;SDS011;48440;51.224;22.506;2023-04-06T01:52:31;3.13;;;2.03;;
62401;SDS011;48440;51.224;22.506;2023-04-06T01:54:56;2.58;;;1.85;;
62401;SDS011;48440;51.224;22.506;2023-04-06T01:57:22;2.65;;;2.00;;
62401;SDS011;48440;51.224;22.506;2023-04-06T01:59:47;2.70;;;2.13;;
62401;SDS011;48440;51.224;22.506;2023-04-06T02:02:12;4.22;;;2.00;;
62401;SDS011;48440;51.224;22.506;2023-04-06T02:04:38;2.72;;;1.98;;
62401;SDS011;48440;51.224;22.506;2023-04-06T02:07:03;3.60;;;2.20;;
62401;SDS011;48440;51.224;22.506;2023-04-06T02:09:29;4.82;;;2.20;;
62401;SDS011;48440;51.224;22.506;2023-04-06T02:11:55;4.35;;;2.15;;
62401;SDS011;48440;51.224;22.506;2023-04-06T02:14:20;3.20;;;2.20;;
62401;SDS011;48440;51.224;22.506;2023-04-06T02:16:46;2.97;;;2.22;;
62401;SDS011;48440;51.224;22.506;2023-04-06T02:19:11;3.58;;;2.00;;
62401;SDS011;48440;51.224;22.506;2023-04-06T02:21:37;4.78;;;2.50;;
62401;SDS011;48440;51.224;22.506;2023-04-06T02:24:02;4.50;;;2.58;;
62401;SDS011;48440;51.224;22.506;2023-04-06T02:26:28;4.97;;;2.67;;
62401;SDS011;48440;51.224;22.506;2023-04-06T02:28:53;4.40;;;2.10;;
62401;SDS011;48440;51.224;22.506;2023-04-06T02:31:19;2.88;;;2.08;;
62401;SDS011;48440;51.224;22.506;2023-04-06T02:33:44;3.53;;;2.10;;
62401;SDS011;48440;51.224;22.506;2023-04-06T02:36:10;3.25;;;1.90;;
62401;SDS011;48440;51.224;22.506;2023-04-06T02:38:35;3.72;;;2.05;;
62401;SDS011;48440;51.224;22.506;2023-04-06T02:41:01;3.55;;;1.90;;
62401;SDS011;48440;51.224;22.506;2023-04-06T02:43:26;3.05;;;2.00;;
62401;SDS011;48440;51.224;22.506;2023-04-06T02:45:51;3.58;;;2.00;;
62401;SDS011;48440;51.224;22.506;2023-04-06T02:48:17;2.80;;;1.95;;
62401;SDS011;48440;51.224;22.506;2023-04-06T02:50:42;3.72;;;2.00;;
62401;SDS011;48440;51.224;22.506;2023-04-06T02:53:08;2.10;;;1.70;;
62401;SDS011;48440;51.224;22.506;2023-04-06T02:55:33;2.58;;;1.83;;
62401;SDS011;48440;51.224;22.506;2023-04-06T02:57:59;2.88;;;1.92;;
62401;SDS011;48440;51.224;22.506;2023-04-06T03:00:24;2.08;;;1.60;;
62401;SDS011;48440;51.224;22.506;2023-04-06T03:02:50;2.47;;;1.85;;
62401;SDS011;48440;51.224;22.506;2023-04-06T03:05:15;3.60;;;2.03;;
62401;SDS011;48440;51.224;22.506;2023-04-06T03:07:41;2.72;;;2.13;;
62401;SDS011;48440;51.224;22.506;2023-04-06T03:10:06;3.47;;;2.00;;
62401;SDS011;48440;51.224;22.506;2023-04-06T03:12:32;2.40;;;1.75;;
62401;SDS011;48440;51.224;22.506;2023-04-06T03:14:58;2.45;;;1.80;;
62401;SDS011;48440;51.224;22.506;2023-04-06T03:17:23;2.47;;;1.98;;
62401;SDS011;48440;51.224;22.506;2023-04-06T03:19:48;3.42;;;2.28;;
62401;SDS011;48440;51.224;22.506;2023-04-06T03:22:14;2.70;;;1.70;;
62401;SDS011;48440;51.224;22.506;2023-04-06T03:24:40;2.60;;;1.98;;
62401;SDS011;48440;51.224;22.506;2023-04-06T03:27:05;2.92;;;1.90;;
62401;SDS011;48440;51.224;22.506;2023-04-06T03:29:31;2.78;;;1.90;;
62401;SDS011;48440;51.224;22.506;2023-04-06T03:31:56;2.83;;;1.70;;
62401;SDS011;48440;51.224;22.506;2023-04-06T03:34:22;3.25;;;1.73;;
62401;SDS011;48440;51.224;22.506;2023-04-06T03:36:47;3.13;;;1.95;;
62401;SDS011;48440;51.224;22.506;2023-04-06T03:39:13;2.80;;;1.85;;
62401;SDS011;48440;51.224;22.506;2023-04-06T03:41:38;2.58;;;1.95;;
62401;SDS011;48440;51.224;22.506;2023-04-06T03:44:04;2.63;;;1.70;;
62401;SDS011;48440;51.224;22.506;2023-04-06T03:46:30;3.00;;;2.10;;
62401;SDS011;48440;51.224;22.506;2023-04-06T03:48:56;3.00;;;2.10;;
62401;SDS011;48440;51.224;22.506;2023-04-06T03:51:21;2.25;;;1.75;;
62401;SDS011;48440;51.224;22.506;2023-04-06T03:53:47;2.97;;;1.77;;
62401;SDS011;48440;51.224;22.506;2023-04-06T03:56:12;2.58;;;1.88;;
62401;SDS011;48440;51.224;22.506;2023-04-06T03:58:38;4.00;;;1.92;;
62401;SDS011;48440;51.224;22.506;2023-04-06T04:01:03;2.47;;;1.85;;
62401;SDS011;48440;51.224;22.506;2023-04-06T04:03:28;2.97;;;1.90;;
62401;SDS011;48440;51.224;22.506;2023-04-06T04:05:54;2.05;;;1.48;;
62401;SDS011;48440;51.224;22.506;2023-04-06T04:08:23;2.63;;;1.65;;
62401;SDS011;48440;51.224;22.506;2023-04-06T04:10:49;2.53;;;2.00;;
62401;SDS011;48440;51.224;22.506;2023-04-06T04:13:14;2.83;;;1.77;;
62401;SDS011;48440;51.224;22.506;2023-04-06T04:15:40;2.05;;;1.55;;
62401;SDS011;48440;51.224;22.506;2023-04-06T04:18:06;3.55;;;1.75;;
62401;SDS011;48440;51.224;22.506;2023-04-06T04:20:31;2.10;;;1.48;;
62401;SDS011;48440;51.224;22.506;2023-04-06T04:22:57;2.63;;;1.80;;
62401;SDS011;48440;51.224;22.506;2023-04-06T04:25:22;2.17;;;1.67;;
62401;SDS011;48440;51.224;22.506;2023-04-06T04:27:48;2.42;;;1.70;;
62401;SDS011;48440;51.224;22.506;2023-04-06T04:30:14;2.50;;;1.90;;
62401;SDS011;48440;51.224;22.506;2023-04-06T04:32:40;2.92;;;2.10;;
62401;SDS011;48440;51.224;22.506;2023-04-06T04:35:05;2.63;;;1.90;;
62401;SDS011;48440;51.224;22.506;2023-04-06T04:37:31;2.33;;;1.70;;
62401;SDS011;48440;51.224;22.506;2023-04-06T04:39:57;2.70;;;1.83;;
62401;SDS011;48440;51.224;22.506;2023-04-06T04:42:22;1.92;;;1.60;;
62401;SDS011;48440;51.224;22.506;2023-04-06T04:44:48;2.70;;;1.83;;
62401;SDS011;48440;51.224;22.506;2023-04-06T04:47:13;2.80;;;1.80;;
62401;SDS011;48440;51.224;22.506;2023-04-06T04:49:38;2.72;;;1.90;;
62401;SDS011;48440;51.224;22.506;2023-04-06T04:52:04;3.58;;;1.83;;
62401;SDS011;48440;51.224;22.506;2023-04-06T04:54:29;2.83;;;1.92;;
62401;SDS011;48440;51.224;22.506;2023-04-06T04:56:55;3.55;;;1.70;;
62401;SDS011;48440;51.224;22.506;2023-04-06T04:59:20;2.50;;;1.67;;
62401;SDS011;48440;51.224;22.506;2023-04-06T05:01:46;3.70;;;2.17;;
62401;SDS011;48440;51.224;22.506;2023-04-06T05:04:11;3.67;;;1.98;;
62401;SDS011;48440;51.224;22.506;2023-04-06T05:06:36;2.70;;;2.00;;
62401;SDS011;48440;51.224;22.506;2023-04-06T05:09:02;2.50;;;1.92;;
62401;SDS011;48440;51.224;22.506;2023-04-06T05:11:27;2.65;;;1.90;;
62401;SDS011;48440;51.224;22.506;2023-04-06T05:13:53;3.35;;;2.35;;
62401;SDS011;48440;51.224;22.506;2023-04-06T05:16:19;3.75;;;2.30;;
62401;SDS011;48440;51.224;22.506;2023-04-06T05:18:45;4.30;;;2.20;;
62401;SDS011;48440;51.224;22.506;2023-04-06T05:21:11;2.53;;;2.00;;
62401;SDS011;48440;51.224;22.506;2023-04-06T05:23:36;2.83;;;2.10;;
62401;SDS011;48440;51.224;22.506;2023-04-06T05:26:02;2.47;;;2.13;;
62401;SDS011;48440;51.224;22.506;2023-04-06T05:28:27;2.63;;;1.65;;
62401;SDS011;48440;51.224;22.506;2023-04-06T05:30:56;3.10;;;2.20;;
62401;SDS011;48440;51.224;22.506;2023-04-06T05:33:22;2.33;;;1.85;;
62401;SDS011;48440;51.224;22.506;2023-04-06T05:35:48;2.47;;;1.92;;
62401;SDS011;48440;51.224;22.506;2023-04-06T05:38:13;4.35;;;2.55;;
62401;SDS011;48440;51.224;22.506;2023-04-06T05:40:38;2.95;;;1.98;;
62401;SDS011;48440;51.224;22.506;2023-04-06T05:43:06;3.10;;;2.20;;
62401;SDS011;48440;51.224;22.506;2023-04-06T05:45:32;3.70;;;2.35;;
62401;SDS011;48440;51.224;22.506;2023-04-06T05:47:57;3.03;;;2.00;;
62401;SDS011;48440;51.224;22.506;2023-04-06T05:50:23;3.25;;;2.40;;
62401;SDS011;48440;51.224;22.506;2023-04-06T05:52:48;3.75;;;2.40;;
62401;SDS011;48440;51.224;22.506;2023-04-06T05:55:14;3.80;;;2.15;;
62401;SDS011;48440;51.224;22.506;2023-04-06T05:57:39;3.08;;;2.22;;
62401;SDS011;48440;51.224;22.506;2023-04-06T06:00:05;4.32;;;2.70;;
62401;SDS011;48440;51.224;22.506;2023-04-06T06:02:33;3.58;;;2.40;;
62401;SDS011;48440;51.224;22.506;2023-04-06T06:04:59;3.42;;;2.30;;
62401;SDS011;48440;51.224;22.506;2023-04-06T06:07:25;2.83;;;2.25;;
62401;SDS011;48440;51.224;22.506;2023-04-06T06:09:50;3.00;;;2.20;;
62401;SDS011;48440;51.224;22.506;2023-04-06T06:12:16;3.40;;;2.53;;
62401;SDS011;48440;51.224;22.506;2023-04-06T06:14:41;3.53;;;2.47;;
62401;SDS011;48440;51.224;22.506;2023-04-06T06:17:07;3.92;;;2.38;;
62401;SDS011;48440;51.224;22.506;2023-04-06T06:19:33;3.92;;;2.65;;
62401;SDS011;48440;51.224;22.506;2023-04-06T06:21:58;4.45;;;2.67;;
62401;SDS011;48440;51.224;22.506;2023-04-06T06:24:26;3.92;;;2.63;;
62401;SDS011;48440;51.224;22.506;2023-04-06T06:26:52;3.33;;;2.55;;
62401;SDS011;48440;51.224;22.506;2023-04-06T06:29:18;4.15;;;2.53;;
62401;SDS011;48440;51.224;22.506;2023-04-06T06:31:43;2.80;;;2.22;;
62401;SDS011;48440;51.224;22.506;2023-04-06T06:34:08;3.25;;;2.20;;
62401;SDS011;48440;51.224;22.506;2023-04-06T06:36:35;4.07;;;2.45;;
62401;SDS011;48440;51.224;22.506;2023-04-06T06:39:00;9.60;;;2.65;;
62401;SDS011;48440;51.224;22.506;2023-04-06T06:41:28;4.13;;;2.88;;
62401;SDS011;48440;51.224;22.506;2023-04-06T06:43:53;5.20;;;3.33;;
62401;SDS011;48440;51.224;22.506;2023-04-06T06:46:19;4.32;;;3.13;;
62401;SDS011;48440;51.224;22.506;2023-04-06T06:48:45;4.70;;;2.70;;
62401;SDS011;48440;51.224;22.506;2023-04-06T06:51:11;3.88;;;2.85;;
62401;SDS011;48440;51.224;22.506;2023-04-06T06:53:37;4.00;;;2.72;;
62401;SDS011;48440;51.224;22.506;2023-04-06T06:56:02;3.20;;;2.38;;
62401;SDS011;48440;51.224;22.506;2023-04-06T06:58:28;3.72;;;2.83;;
62401;SDS011;48440;51.224;22.506;2023-04-06T07:00:57;4.07;;;2.80;;
62401;SDS011;48440;51.224;22.506;2023-04-06T07:03:23;4.20;;;3.15;;
62401;SDS011;48440;51.224;22.506;2023-04-06T07:05:49;3.38;;;2.80;;
62401;SDS011;48440;51.224;22.506;2023-04-06T07:08:18;3.92;;;2.72;;
62401;SDS011;48440;51.224;22.506;2023-04-06T07:10:44;3.65;;;2.60;;
62401;SDS011;48440;51.224;22.506;2023-04-06T07:13:10;4.07;;;3.13;;
62401;SDS011;48440;51.224;22.506;2023-04-06T07:15:36;3.60;;;2.90;;
62401;SDS011;48440;51.224;22.506;2023-04-06T07:18:02;4.20;;;2.65;;
62401;SDS011;48440;51.224;22.506;2023-04-06T07:20:27;4.97;;;3.05;;
62401;SDS011;48440;51.224;22.506;2023-04-06T07:22:53;3.47;;;2.85;;
62401;SDS011;48440;51.224;22.506;2023-04-06T07:25:19;4.10;;;3.05;;
62401;SDS011;48440;51.224;22.506;2023-04-06T07:27:44;3.25;;;2.53;;
62401;SDS011;48440;51.224;22.506;2023-04-06T07:30:10;3.63;;;2.33;;
62401;SDS011;48440;51.224;22.506;2023-04-06T07:32:35;3.67;;;2.67;;
62401;SDS011;48440;51.224;22.506;2023-04-06T07:35:01;4.18;;;3.00;;
62401;SDS011;48440;51.224;22.506;2023-04-06T07:37:27;3.38;;;2.72;;
62401;SDS011;48440;51.224;22.506;2023-04-06T07:39:53;3.70;;;2.75;;
62401;SDS011;48440;51.224;22.506;2023-04-06T07:42:18;4.72;;;2.90;;
62401;SDS011;48440;51.224;22.506;2023-04-06T07:44:44;5.03;;;3.00;;
62401;SDS011;48440;51.224;22.506;2023-04-06T07:47:09;2.88;;;2.30;;
62401;SDS011;48440;51.224;22.506;2023-04-06T07:49:35;4.15;;;2.75;;
62401;SDS011;48440;51.224;22.506;2023-04-06T07:52:01;4.13;;;2.80;;
62401;SDS011;48440;51.224;22.506;2023-04-06T07:54:27;2.72;;;2.50;;
62401;SDS011;48440;51.224;22.506;2023-04-06T07:56:53;4.93;;;3.08;;
62401;SDS011;48440;51.224;22.506;2023-04-06T07:59:18;2.72;;;2.40;;
62401;SDS011;48440;51.224;22.506;2023-04-06T08:01:44;3.15;;;2.60;;
62401;SDS011;48440;51.224;22.506;2023-04-06T08:04:09;2.97;;;2.63;;
62401;SDS011;48440;51.224;22.506;2023-04-06T08:06:35;3.30;;;2.47;;
62401;SDS011;48440;51.224;22.506;2023-04-06T08:09:01;3.53;;;2.75;;
62401;SDS011;48440;51.224;22.506;2023-04-06T08:11:27;2.63;;;2.40;;
62401;SDS011;48440;51.224;22.506;2023-04-06T08:13:52;3.85;;;2.60;;
62401;SDS011;48440;51.224;22.506;2023-04-06T08:16:18;3.90;;;2.55;;
62401;SDS011;48440;51.224;22.506;2023-04-06T08:18:44;3.65;;;2.45;;
62401;SDS011;48440;51.224;22.506;2023-04-06T08:21:10;3.83;;;2.22;;
62401;SDS011;48440;51.224;22.506;2023-04-06T08:23:36;3.20;;;2.70;;
62401;SDS011;48440;51.224;22.506;2023-04-06T08:26:01;3.40;;;2.55;;
62401;SDS011;48440;51.224;22.506;2023-04-06T08:28:26;3.65;;;2.80;;
62401;SDS011;48440;51.224;22.506;2023-04-06T08:30:52;3.58;;;2.42;;
62401;SDS011;48440;51.224;22.506;2023-04-06T08:33:17;4.55;;;2.65;;
62401;SDS011;48440;51.224;22.506;2023-04-06T08:35:43;3.05;;;2.53;;
62401;SDS011;48440;51.224;22.506;2023-04-06T08:38:08;4.15;;;2.65;;
62401;SDS011;48440;51.224;22.506;2023-04-06T08:40:37;2.88;;;2.53;;
62401;SDS011;48440;51.224;22.506;2023-04-06T08:43:03;3.50;;;2.40;;
62401;SDS011;48440;51.224;22.506;2023-04-06T08:45:33;4.20;;;2.40;;
62401;SDS011;48440;51.224;22.506;2023-04-06T08:47:59;4.90;;;2.97;;
62401;SDS011;48440;51.224;22.506;2023-04-06T08:50:26;4.50;;;2.53;;
62401;SDS011;48440;51.224;22.506;2023-04-06T08:52:54;2.83;;;2.42;;
62401;SDS011;48440;51.224;22.506;2023-04-06T08:55:20;3.85;;;2.47;;
62401;SDS011;48440;51.224;22.506;2023-04-06T08:57:50;3.63;;;2.38;;
62401;SDS011;48440;51.224;22.506;2023-04-06T09:00:18;2.88;;;2.33;;
62401;SDS011;48440;51.224;22.506;2023-04-06T09:02:45;3.03;;;2.50;;
62401;SDS011;48440;51.224;22.506;2023-04-06T09:05:12;3.15;;;2.50;;
62401;SDS011;48440;51.224;22.506;2023-04-06T09:07:38;4.68;;;2.60;;
62401;SDS011;48440;51.224;22.506;2023-04-06T09:10:04;3.33;;;2.45;;
62401;SDS011;48440;51.224;22.506;2023-04-06T09:12:31;2.78;;;2.38;;
62401;SDS011;48440;51.224;22.506;2023-04-06T09:14:57;4.03;;;2.53;;
62401;SDS011;48440;51.224;22.506;2023-04-06T09:17:25;2.90;;;2.35;;
62401;SDS011;48440;51.224;22.506;2023-04-06T09:19:52;4.35;;;2.58;;
62401;SDS011;48440;51.224;22.506;2023-04-06T09:22:18;3.05;;;2.45;;
62401;SDS011;48440;51.224;22.506;2023-04-06T09:24:48;2.40;;;2.10;;
62401;SDS011;48440;51.224;22.506;2023-04-06T09:27:15;2.95;;;2.40;;
62401;SDS011;48440;51.224;22.506;2023-04-06T09:29:41;2.50;;;2.20;;
62401;SDS011;48440;51.224;22.506;2023-04-06T09:32:08;3.42;;;2.17;;
62401;SDS011;48440;51.224;22.506;2023-04-06T09:34:41;2.70;;;2.20;;
62401;SDS011;48440;51.224;22.506;2023-04-06T09:37:14;3.13;;;2.40;;
62401;SDS011;48440;51.224;22.506;2023-04-06T09:39:45;4.40;;;2.40;;
62401;SDS011;48440;51.224;22.506;2023-04-06T09:42:26;3.10;;;2.55;;
62401;SDS011;48440;51.224;22.506;2023-04-06T09:44:51;3.22;;;2.42;;
62401;SDS011;48440;51.224;22.506;2023-04-06T09:47:17;3.13;;;2.50;;
62401;SDS011;48440;51.224;22.506;2023-04-06T09:49:44;3.33;;;2.63;;
62401;SDS011;48440;51.224;22.506;2023-04-06T09:52:13;3.35;;;2.45;;
62401;SDS011;48440;51.224;22.506;2023-04-06T09:54:40;4.50;;;2.60;;
62401;SDS011;48440;51.224;22.506;2023-04-06T09:57:11;3.22;;;2.58;;
62401;SDS011;48440;51.224;22.506;2023-04-06T10:05:35;3.42;;;2.53;;
62401;SDS011;48440;51.224;22.506;2023-04-06T10:08:10;3.25;;;2.22;;
62401;SDS011;48440;51.224;22.506;2023-04-06T10:10:37;3.35;;;2.63;;
62401;SDS011;48440;51.224;22.506;2023-04-06T10:13:03;2.80;;;2.55;;
62401;SDS011;48440;51.224;22.506;2023-04-06T10:15:29;3.72;;;2.88;;
62401;SDS011;48440;51.224;22.506;2023-04-06T10:17:56;3.90;;;2.35;;
62401;SDS011;48440;51.224;22.506;2023-04-06T10:23:32;4.03;;;2.50;;
62401;SDS011;48440;51.224;22.506;2023-04-06T10:26:01;2.78;;;2.38;;
62401;SDS011;48440;51.224;22.506;2023-04-06T10:28:34;2.92;;;2.13;;
62401;SDS011;48440;51.224;22.506;2023-04-06T10:31:04;3.20;;;2.50;;
62401;SDS011;48440;51.224;22.506;2023-04-06T10:33:30;3.75;;;2.65;;
62401;SDS011;48440;51.224;22.506;2023-04-06T10:35:56;3.50;;;2.50;;
62401;SDS011;48440;51.224;22.506;2023-04-06T10:38:34;3.47;;;2.90;;
62401;SDS011;48440;51.224;22.506;2023-04-06T10:41:06;3.33;;;2.67;;
62401;SDS011;48440;51.224;22.506;2023-04-06T10:43:33;3.25;;;2.60;;
62401;SDS011;48440;51.224;22.506;2023-04-06T10:46:00;3.35;;;2.80;;
62401;SDS011;48440;51.224;22.506;2023-04-06T10:48:36;4.18;;;2.75;;
62401;SDS011;48440;51.224;22.506;2023-04-06T10:51:12;3.05;;;2.53;;
62401;SDS011;48440;51.224;22.506;2023-04-06T10:53:41;3.35;;;2.63;;
62401;SDS011;48440;51.224;22.506;2023-04-06T10:56:12;3.58;;;2.70;;
62401;SDS011;48440;51.224;22.506;2023-04-06T10:58:43;2.80;;;2.40;;
62401;SDS011;48440;51.224;22.506;2023-04-06T11:01:14;2.67;;;2.20;;
62401;SDS011;48440;51.224;22.506;2023-04-06T11:03:47;3.42;;;2.10;;
62401;SDS011;48440;51.224;22.506;2023-04-06T11:06:48;2.55;;;2.22;;
62401;SDS011;48440;51.224;22.506;2023-04-06T11:09:11;3.75;;;2.65;;
62401;SDS011;48440;51.224;22.506;2023-04-06T11:11:38;2.78;;;2.30;;
62401;SDS011;48440;51.224;22.506;2023-04-06T11:14:04;2.83;;;2.10;;
62401;SDS011;48440;51.224;22.506;2023-04-06T11:16:30;3.60;;;2.80;;
62401;SDS011;48440;51.224;22.506;2023-04-06T11:19:03;4.28;;;2.45;;
62401;SDS011;48440;51.224;22.506;2023-04-06T11:21:38;2.80;;;2.50;;
62401;SDS011;48440;51.224;22.506;2023-04-06T11:24:15;2.83;;;2.30;;
62401;SDS011;48440;51.224;22.506;2023-04-06T11:26:54;3.67;;;2.50;;
62401;SDS011;48440;51.224;22.506;2023-04-06T11:29:22;2.90;;;2.10;;
62401;SDS011;48440;51.224;22.506;2023-04-06T11:31:51;4.75;;;2.78;;
62401;SDS011;48440;51.224;22.506;2023-04-06T11:36:48;3.72;;;2.67;;
62401;SDS011;48440;51.224;22.506;2023-04-06T11:39:21;3.10;;;2.20;;
62401;SDS011;48440;51.224;22.506;2023-04-06T11:41:49;3.03;;;2.38;;
62401;SDS011;48440;51.224;22.506;2023-04-06T11:44:15;3.15;;;2.30;;
62401;SDS011;48440;51.224;22.506;2023-04-06T11:47:01;2.78;;;2.35;;
62401;SDS011;48440;51.224;22.506;2023-04-06T11:49:28;3.40;;;2.40;;
62401;SDS011;48440;51.224;22.506;2023-04-06T11:51:54;2.70;;;2.30;;
62401;SDS011;48440;51.224;22.506;2023-04-06T11:54:31;4.70;;;2.55;;
62401;SDS011;48440;51.224;22.506;2023-04-06T11:56:57;3.17;;;2.47;;
62401;SDS011;48440;51.224;22.506;2023-04-06T11:59:23;2.80;;;2.40;;
62401;SDS011;48440;51.224;22.506;2023-04-06T12:01:48;3.95;;;2.90;;
62401;SDS011;48440;51.224;22.506;2023-04-06T12:04:17;2.80;;;2.20;;
62401;SDS011;48440;51.224;22.506;2023-04-06T12:06:42;3.10;;;2.55;;
62401;SDS011;48440;51.224;22.506;2023-04-06T12:09:17;4.40;;;2.83;;
62401;SDS011;48440;51.224;22.506;2023-04-06T12:12:08;3.58;;;2.70;;
62401;SDS011;48440;51.224;22.506;2023-04-06T12:14:34;3.15;;;2.42;;
62401;SDS011;48440;51.224;22.506;2023-04-06T12:17:03;3.20;;;2.50;;
62401;SDS011;48440;51.224;22.506;2023-04-06T12:19:48;3.72;;;2.60;;
62401;SDS011;48440;51.224;22.506;2023-04-06T12:22:20;3.13;;;2.10;;
62401;SDS011;48440;51.224;22.506;2023-04-06T12:24:45;3.78;;;2.38;;
62401;SDS011;48440;51.224;22.506;2023-04-06T12:27:14;3.58;;;2.53;;
62401;SDS011;48440;51.224;22.506;2023-04-06T12:29:40;3.17;;;2.30;;
62401;SDS011;48440;51.224;22.506;2023-04-06T12:32:06;2.90;;;2.58;;
62401;SDS011;48440;51.224;22.506;2023-04-06T12:34:33;4.78;;;2.72;;
62401;SDS011;48440;51.224;22.506;2023-04-06T12:36:58;4.15;;;2.45;;
62401;SDS011;48440;51.224;22.506;2023-04-06T12:39:24;3.05;;;2.72;;
62401;SDS011;48440;51.224;22.506;2023-04-06T12:41:52;2.92;;;2.40;;
62401;SDS011;48440;51.224;22.506;2023-04-06T12:44:17;3.67;;;2.60;;
62401;SDS011;48440;51.224;22.506;2023-04-06T12:46:43;2.80;;;2.35;;
62401;SDS011;48440;51.224;22.506;2023-04-06T12:49:08;3.50;;;2.50;;
62401;SDS011;48440;51.224;22.506;2023-04-06T12:51:34;3.25;;;2.35;;
62401;SDS011;48440;51.224;22.506;2023-04-06T12:53:59;3.80;;;3.10;;
62401;SDS011;48440;51.224;22.506;2023-04-06T12:56:24;3.13;;;2.50;;
62401;SDS011;48440;51.224;22.506;2023-04-06T12:58:50;3.75;;;2.78;;
62401;SDS011;48440;51.224;22.506;2023-04-06T13:01:16;3.13;;;2.55;;
62401;SDS011;48440;51.224;22.506;2023-04-06T13:03:42;3.05;;;2.20;;
62401;SDS011;48440;51.224;22.506;2023-04-06T13:06:08;3.88;;;2.60;;
62401;SDS011;48440;51.224;22.506;2023-04-06T13:08:34;2.95;;;2.33;;
62401;SDS011;48440;51.224;22.506;2023-04-06T13:11:02;2.60;;;2.22;;
62401;SDS011;48440;51.224;22.506;2023-04-06T13:13:28;3.08;;;2.38;;
62401;SDS011;48440;51.224;22.506;2023-04-06T13:15:58;2.80;;;2.30;;
62401;SDS011;48440;51.224;22.506;2023-04-06T13:18:26;3.15;;;2.40;;
62401;SDS011;48440;51.224;22.506;2023-04-06T13:20:51;2.60;;;2.15;;
62401;SDS011;48440;51.224;22.506;2023-04-06T13:23:17;3.33;;;2.70;;
62401;SDS011;48440;51.224;22.506;2023-04-06T13:25:42;3.10;;;2.80;;
62401;SDS011;48440;51.224;22.506;2023-04-06T13:28:08;2.55;;;2.20;;
62401;SDS011;48440;51.224;22.506;2023-04-06T13:30:34;3.45;;;2.40;;
62401;SDS011;48440;51.224;22.506;2023-04-06T13:32:59;3.55;;;2.65;;
62401;SDS011;48440;51.224;22.506;2023-04-06T13:35:24;3.00;;;2.40;;
62401;SDS011;48440;51.224;22.506;2023-04-06T13:37:50;2.90;;;2.40;;
62401;SDS011;48440;51.224;22.506;2023-04-06T13:40:17;2.70;;;2.20;;
62401;SDS011;48440;51.224;22.506;2023-04-06T13:42:43;2.80;;;2.50;;
62401;SDS011;48440;51.224;22.506;2023-04-06T13:45:10;2.97;;;2.50;;
62401;SDS011;48440;51.224;22.506;2023-04-06T13:47:36;3.30;;;2.70;;
62401;SDS011;48440;51.224;22.506;2023-04-06T13:50:01;4.32;;;2.63;;
62401;SDS011;48440;51.224;22.506;2023-04-06T13:52:27;3.42;;;2.80;;
62401;SDS011;48440;51.224;22.506;2023-04-06T13:54:53;3.45;;;3.15;;
62401;SDS011;48440;51.224;22.506;2023-04-06T13:57:18;3.13;;;2.53;;
62401;SDS011;48440;51.224;22.506;2023-04-06T13:59:44;4.10;;;3.13;;
62401;SDS011;48440;51.224;22.506;2023-04-06T14:02:10;3.05;;;2.60;;
62401;SDS011;48440;51.224;22.506;2023-04-06T14:04:36;3.58;;;3.00;;
62401;SDS011;48440;51.224;22.506;2023-04-06T14:07:02;4.15;;;3.22;;
62401;SDS011;48440;51.224;22.506;2023-04-06T14:09:28;3.33;;;2.85;;
62401;SDS011;48440;51.224;22.506;2023-04-06T14:11:55;3.83;;;3.40;;
62401;SDS011;48440;51.224;22.506;2023-04-06T14:14:21;4.05;;;2.95;;
62401;SDS011;48440;51.224;22.506;2023-04-06T14:16:47;3.53;;;2.90;;
62401;SDS011;48440;51.224;22.506;2023-04-06T14:19:14;3.25;;;2.92;;
62401;SDS011;48440;51.224;22.506;2023-04-06T14:21:41;4.13;;;3.08;;
62401;SDS011;48440;51.224;22.506;2023-04-06T14:24:09;3.88;;;3.22;;
62401;SDS011;48440;51.224;22.506;2023-04-06T14:26:36;4.00;;;3.58;;
62401;SDS011;48440;51.224;22.506;2023-04-06T14:29:02;3.38;;;3.08;;
62401;SDS011;48440;51.224;22.506;2023-04-06T14:31:29;3.25;;;2.95;;
62401;SDS011;48440;51.224;22.506;2023-04-06T14:33:55;4.60;;;3.28;;
62401;SDS011;48440;51.224;22.506;2023-04-06T14:36:20;3.92;;;3.15;;
62401;SDS011;48440;51.224;22.506;2023-04-06T14:38:46;4.60;;;3.55;;
62401;SDS011;48440;51.224;22.506;2023-04-06T14:41:15;3.70;;;3.22;;